»·PEaware :: N5002T KSBA-KSNA

N5002T :: KSBA-KSNA

FLIGHT INFORMATION

Flight Status: Arrived
Operator: Privately registered:
United States
More flights under this callsign
Pilot: Hunter M. (19355)
Aircraft: CESSNA 172 SKYHAWK
(C172)
More flights by this aircraft type
Origin: KSBA Santa Barbara Mun
United States
Destination: KSNA John Wayne-Orange Co
United States
More flights between these airports :: More routes between these airports
Route: +KWANG CMA VNY V186 BAYJY V363 POXKU V8 SLI
File this flight plan on PilotEdge
Remarks: +CW / tec route SBAP6
Altitude:
(Current/Filed)
5,000ft
Speed:
(Current/Filed)
118kts
Departed: 24-Apr-19 08:11 AM
Arrived: 24-Apr-19 09:53 AM
Distance/Time
Traveled:
108nm/1:42
Distance/Time
To Go:
Arrived

Flight Plot

Page will automatically refresh every two minutes.


Map Options




Map Legend


Flown Route
Filed Route
Departure Airport
Arrival Airport
Navaid (VOR, NDB)
Fix

Horizontal Profiles

Position Reports

Time Latitude Longitude Heading Altitude Ground
Speed
24-Apr-19 07:45 34.431455 -119.831911 357 13ft 0kts
24-Apr-19 07:46 34.431455 -119.831911 357 13ft 0kts
24-Apr-19 07:47 34.431455 -119.831911 357 13ft 0kts
24-Apr-19 07:48 34.431455 -119.831911 357 13ft 0kts
24-Apr-19 07:49 34.431455 -119.831911 357 13ft 0kts
24-Apr-19 07:50 34.431455 -119.831911 357 13ft 0kts
24-Apr-19 07:51 34.431455 -119.831911 357 13ft 0kts
24-Apr-19 07:52 34.431455 -119.831911 357 13ft 0kts
24-Apr-19 07:53 34.431455 -119.831911 357 13ft 0kts
24-Apr-19 07:54 34.431455 -119.831911 357 13ft 0kts
24-Apr-19 07:55 34.431455 -119.831911 357 13ft 0kts
24-Apr-19 07:56 34.431455 -119.831911 357 13ft 0kts
24-Apr-19 07:57 34.431455 -119.831911 357 13ft 0kts
24-Apr-19 07:58 34.431455 -119.831911 357 13ft 0kts
24-Apr-19 07:59 34.431455 -119.831911 357 13ft 0kts
24-Apr-19 08:00 34.431455 -119.831911 357 13ft 0kts
24-Apr-19 08:01 34.431455 -119.831911 357 13ft 0kts
24-Apr-19 08:02 34.431455 -119.831911 357 13ft 0kts
24-Apr-19 08:03 34.431455 -119.831911 357 13ft 0kts
24-Apr-19 08:04 34.431220 -119.831835 173 13ft 8kts
24-Apr-19 08:05 34.429961 -119.832010 187 13ft 7kts
24-Apr-19 08:06 34.429088 -119.832623 268 13ft 5kts
24-Apr-19 08:07 34.428533 -119.835191 179 13ft 0kts
24-Apr-19 08:08 34.428472 -119.835190 178 13ft 6kts
24-Apr-19 08:09 34.427880 -119.835679 262 13ft 0kts
24-Apr-19 08:10 34.427562 -119.853207 265 436ft 75kts
24-Apr-19 08:11 34.425807 -119.878758 262 1278ft 80kts
24-Apr-19 08:12 34.423250 -119.906206 262 2010ft 82kts
24-Apr-19 08:13 34.417973 -119.931623 209 2769ft 85kts
24-Apr-19 08:14 34.397640 -119.913416 142 3557ft 93kts
24-Apr-19 08:15 34.378481 -119.893133 141 4295ft 89kts
24-Apr-19 08:16 34.359351 -119.873873 141 4933ft 95kts
24-Apr-19 08:17 34.334834 -119.849273 142 5013ft 127kts
24-Apr-19 08:18 34.308274 -119.821357 142 5000ft 125kts
24-Apr-19 08:19 34.298058 -119.784899 82 5007ft 125kts
24-Apr-19 08:20 34.300519 -119.743502 82 5000ft 120kts
24-Apr-19 08:21 34.295679 -119.703718 96 5025ft 117kts
24-Apr-19 08:22 34.292621 -119.664946 81 5012ft 119kts
24-Apr-19 08:23 34.291025 -119.625309 93 5052ft 114kts
24-Apr-19 08:24 34.286352 -119.586091 87 5000ft 118kts
24-Apr-19 08:25 34.285846 -119.546507 86 5000ft 117kts
24-Apr-19 08:26 34.285847 -119.507271 85 5008ft 116kts
24-Apr-19 08:27 34.280942 -119.467468 98 4938ft 117kts
24-Apr-19 08:28 34.276892 -119.430304 94 4997ft 109kts
24-Apr-19 08:29 34.276192 -119.393588 85 5010ft 109kts
24-Apr-19 08:30 34.276545 -119.356608 89 5009ft 110kts
24-Apr-19 08:31 34.274778 -119.319506 91 5009ft 110kts
24-Apr-19 08:32 34.272582 -119.282323 91 5009ft 110kts
24-Apr-19 08:33 34.270286 -119.245406 90 5009ft 110kts
24-Apr-19 08:34 34.268062 -119.208366 90 5009ft 110kts
24-Apr-19 08:35 34.266007 -119.171409 90 5008ft 110kts
24-Apr-19 08:36 34.264499 -119.134206 90 5009ft 110kts
24-Apr-19 08:37 34.262952 -119.097056 90 5009ft 111kts
24-Apr-19 08:38 34.261285 -119.059772 90 5011ft 110kts
24-Apr-19 08:39 34.258667 -119.022763 91 5012ft 110kts
24-Apr-19 08:40 34.255945 -118.985758 91 5012ft 110kts
24-Apr-19 08:41 34.253311 -118.948784 91 5011ft 110kts
24-Apr-19 08:42 34.250881 -118.911626 91 5011ft 110kts
24-Apr-19 08:43 34.248594 -118.874533 91 5011ft 110kts
24-Apr-19 08:44 34.246391 -118.837467 90 5011ft 110kts
24-Apr-19 08:45 34.244104 -118.800386 90 5013ft 110kts
24-Apr-19 08:46 34.241951 -118.763231 90 5013ft 110kts
24-Apr-19 08:47 34.239892 -118.726213 90 5013ft 110kts
24-Apr-19 08:48 34.237902 -118.689029 90 5011ft 110kts
24-Apr-19 08:49 34.236006 -118.651909 90 5010ft 110kts
24-Apr-19 08:50 34.234226 -118.614710 90 5008ft 110kts
24-Apr-19 08:51 34.232003 -118.577514 94 4997ft 111kts
24-Apr-19 08:52 34.228115 -118.540384 95 5009ft 110kts
24-Apr-19 08:53 34.221969 -118.504087 94 5005ft 112kts
24-Apr-19 08:54 34.218253 -118.466789 93 4996ft 111kts
24-Apr-19 08:55 34.213885 -118.429892 104 5009ft 110kts
24-Apr-19 08:56 34.202648 -118.395103 113 5020ft 111kts
24-Apr-19 08:57 34.188344 -118.362061 115 5028ft 109kts
24-Apr-19 08:58 34.181123 -118.326066 103 4973ft 112kts
24-Apr-19 08:59 34.170804 -118.290822 119 4958ft 110kts
24-Apr-19 09:00 34.156373 -118.258375 120 4954ft 109kts
24-Apr-19 09:01 34.142104 -118.226174 120 4951ft 109kts
24-Apr-19 09:02 34.128278 -118.193720 113 4953ft 109kts
24-Apr-19 09:03 34.118083 -118.159156 108 4954ft 109kts
24-Apr-19 09:04 34.110769 -118.123378 106 4956ft 109kts
24-Apr-19 09:05 34.101229 -118.089402 108 4965ft 106kts
24-Apr-19 09:06 34.089264 -118.056315 112 5025ft 110kts
24-Apr-19 09:07 34.078649 -118.021347 106 5020ft 111kts
24-Apr-19 09:08 34.069619 -117.985476 106 5001ft 111kts
24-Apr-19 09:09 34.059521 -117.950399 112 5004ft 110kts
24-Apr-19 09:10 34.048289 -117.915900 112 5005ft 110kts
24-Apr-19 09:11 34.036830 -117.881442 111 5012ft 110kts
24-Apr-19 09:12 34.024837 -117.847173 111 5019ft 111kts
24-Apr-19 09:13 34.012784 -117.812768 108 5019ft 111kts
24-Apr-19 09:14 33.997499 -117.782944 159 4983ft 110kts
24-Apr-19 09:15 33.967149 -117.775109 181 4412ft 112kts
24-Apr-19 09:17 33.936293 -117.774779 186 3997ft 102kts
24-Apr-19 09:18 33.909782 -117.777275 187 4015ft 93kts
24-Apr-19 09:19 33.891243 -117.765419 92 4035ft 95kts
24-Apr-19 09:20 33.888673 -117.732737 92 4016ft 98kts
24-Apr-19 09:21 33.885976 -117.699968 92 4017ft 98kts
24-Apr-19 09:22 33.892129 -117.674003 351 4031ft 84kts
24-Apr-19 09:23 33.878795 -117.685405 191 4026ft 93kts
24-Apr-19 09:24 33.855211 -117.692329 255 4004ft 80kts
24-Apr-19 09:25 33.850894 -117.719751 261 4026ft 89kts
24-Apr-19 09:26 33.845360 -117.749420 241 4016ft 93kts
24-Apr-19 09:27 33.828986 -117.774994 205 3794ft 108kts
24-Apr-19 09:28 33.799157 -117.777720 198 3474ft 104kts
24-Apr-19 09:29 33.776473 -117.796438 247 3176ft 95kts
24-Apr-19 09:30 33.754527 -117.812317 213 2948ft 98kts
24-Apr-19 09:31 33.730085 -117.830083 215 2472ft 102kts
24-Apr-19 09:32 33.709594 -117.846222 271 2513ft 91kts
24-Apr-19 09:33 33.730363 -117.864266 334 2988ft 94kts
24-Apr-19 09:34 33.754421 -117.876378 335 2938ft 93kts
24-Apr-19 09:35 33.776416 -117.889380 332 3023ft 92kts
24-Apr-19 09:36 33.801360 -117.891968 16 2988ft 97kts
24-Apr-19 09:37 33.827094 -117.880500 16 2957ft 96kts
24-Apr-19 09:37 33.847411 -117.871320 13 3064ft 93kts
24-Apr-19 09:39 33.873600 -117.850374 45 2971ft 106kts
24-Apr-19 09:39 33.888906 -117.828233 43 3006ft 98kts
24-Apr-19 09:40 33.894888 -117.795173 83 3009ft 103kts
24-Apr-19 09:41 33.895821 -117.760642 84 3046ft 103kts
24-Apr-19 09:43 33.873097 -117.739128 170 3006ft 102kts
24-Apr-19 09:43 33.856598 -117.754464 224 2947ft 100kts
24-Apr-19 09:44 33.831879 -117.768631 208 2982ft 95kts
24-Apr-19 09:45 33.808648 -117.783171 212 2895ft 91kts
24-Apr-19 09:46 33.786608 -117.799283 215 2272ft 96kts
24-Apr-19 09:47 33.763821 -117.812645 201 1795ft 81kts
24-Apr-19 09:48 33.745557 -117.824101 208 1399ft 71kts
24-Apr-19 09:49 33.727611 -117.835383 217 1017ft 74kts
24-Apr-19 09:50 33.709740 -117.846641 207 706ft 70kts
24-Apr-19 09:51 33.692609 -117.858145 210 365ft 72kts
24-Apr-19 09:52 33.679060 -117.866664 213 59ft 5kts
24-Apr-19 09:53 33.678405 -117.868163 292 59ft 0kts
24-Apr-19 09:54 33.678433 -117.868244 292 59ft 7kts

Navigation Log

Ident Type
Flight plan parsing failed, navigation log unavailable